createdAt,value
2019-03-04T00:02:31.188Z,97876.86
2019-03-04T00:05:02.403Z,97873.42
2019-03-04T00:07:33.622Z,97864.53
2019-03-04T00:10:05.698Z,97858.64
2019-03-04T00:12:37.412Z,97863.67
2019-03-04T00:15:11.728Z,97862.91
2019-03-04T00:17:43.067Z,97863.96
2019-03-04T00:20:15.264Z,97858.06
2019-03-04T00:22:48.747Z,97857.30
2019-03-04T00:25:21.400Z,97853.48
2019-03-04T00:27:55.094Z,97851.06
2019-03-04T00:30:26.826Z,97842.75
2019-03-04T00:32:58.007Z,97839.14
2019-03-04T00:35:29.189Z,97842.39
2019-03-04T00:38:00.365Z,97844.56
2019-03-04T00:40:31.595Z,97829.15
2019-03-04T00:43:03.061Z,97840.48
2019-03-04T00:45:35.145Z,97845.42
2019-03-04T00:48:06.398Z,97838.83
2019-03-04T00:50:39.207Z,97832.98
2019-03-04T00:53:10.425Z,97832.28
2019-03-04T00:55:42.421Z,97835.56
2019-03-04T00:58:13.634Z,97837.09
2019-03-04T01:00:45.872Z,97840.62
2019-03-04T01:03:18.443Z,97841.17
2019-03-04T01:05:49.691Z,97825.91
2019-03-04T01:08:22.769Z,97831.74
2019-03-04T01:10:54.027Z,97826.39
2019-03-04T01:13:27.227Z,97833.75
2019-03-04T01:15:58.467Z,97830.31
2019-03-04T01:18:29.700Z,97827.16
2019-03-04T01:21:00.920Z,97822.63
2019-03-04T01:26:02.042Z,97821.03
2019-03-04T01:28:33.204Z,97827.34
2019-03-04T01:31:04.599Z,97831.94
2019-03-04T01:33:35.808Z,97833.41
2019-03-04T01:36:08.276Z,97832.52
2019-03-04T01:38:39.460Z,97829.27
2019-03-04T01:41:10.611Z,97823.34
2019-03-04T01:43:42.722Z,97818.92
2019-03-04T01:46:13.862Z,97819.09
2019-03-04T01:48:47.401Z,97812.11
2019-03-04T01:51:18.624Z,97809.84
2019-03-04T01:53:49.931Z,97807.84
2019-03-04T01:56:21.125Z,97806.89
2019-03-04T01:58:52.415Z,97809.47
2019-03-04T02:01:23.575Z,97802.05
2019-03-04T02:03:54.760Z,97795.42
2019-03-04T02:06:25.977Z,97802.33
2019-03-04T02:08:57.427Z,97795.84
2019-03-04T02:11:30.882Z,97803.09
2019-03-04T02:14:04.375Z,97795.84
2019-03-04T02:16:36.658Z,97790.96
2019-03-04T02:19:07.958Z,97787.08
2019-03-04T02:21:40.478Z,97789.39
2019-03-04T02:24:20.908Z,97791.78
2019-03-04T02:26:54.327Z,97788.14
2019-03-04T02:29:29.136Z,97790.63
2019-03-04T02:32:01.389Z,97786.88
2019-03-04T02:34:32.794Z,97794.66
2019-03-04T02:37:04.007Z,97795.02
2019-03-04T02:39:35.796Z,97789.20
2019-03-04T02:42:07.741Z,97784.20
2019-03-04T02:44:38.984Z,97790.59
2019-03-04T02:47:11.791Z,97773.22
2019-03-04T02:49:45.279Z,97773.22
2019-03-04T02:52:17.588Z,97779.73
2019-03-04T02:54:48.786Z,97773.88
2019-03-04T02:57:22.402Z,97774.90
2019-03-04T02:59:53.570Z,97779.73
2019-03-04T03:02:24.769Z,97764.65
2019-03-04T03:04:56.908Z,97772.12
2019-03-04T03:07:28.613Z,97779.34
2019-03-04T03:09:59.784Z,97785.09
2019-03-04T03:12:31.165Z,97775.92
2019-03-04T03:15:03.911Z,97776.50
2019-03-04T03:17:35.414Z,97780.91
2019-03-04T03:20:10.243Z,97776.97
2019-03-04T03:22:41.432Z,97782.39
2019-03-04T03:25:13.633Z,97772.67
2019-03-04T03:27:46.539Z,97780.41
2019-03-04T03:30:21.767Z,97772.86
2019-03-04T03:32:53.003Z,97771.27
2019-03-04T03:35:24.219Z,97778.24
2019-03-04T03:37:55.464Z,97767.91
2019-03-04T03:40:26.719Z,97765.17
2019-03-04T03:42:57.978Z,97767.05
2019-03-04T03:45:29.156Z,97770.87
2019-03-04T03:48:00.428Z,97752.70
2019-03-04T03:50:31.561Z,97765.23
2019-03-04T03:53:04.991Z,97764.08
2019-03-04T03:55:36.196Z,97761.41
2019-03-04T03:58:07.502Z,97756.06
2019-03-04T04:00:38.626Z,97758.45
2019-03-04T04:03:09.927Z,97758.84
2019-03-04T04:05:41.089Z,97722.17
2019-03-04T04:08:12.231Z,97755.52
2019-03-04T04:10:43.633Z,97754.94
2019-03-04T04:13:14.990Z,97749.31
2019-03-04T04:15:46.240Z,97749.47
2019-03-04T04:18:17.343Z,97754.34
2019-03-04T04:20:48.611Z,97746.73
2019-03-04T04:23:19.833Z,97745.87
2019-03-04T04:25:51.562Z,97745.05
2019-03-04T04:28:22.826Z,97737.61
2019-03-04T04:30:54.101Z,97747.47
2019-03-04T04:33:25.436Z,97743.53
2019-03-04T04:35:58.081Z,97744.52
2019-03-04T04:38:29.311Z,97734.08
2019-03-04T04:41:00.564Z,97741.91
2019-03-04T04:43:32.893Z,97744.00
2019-03-04T04:46:04.212Z,97732.11
2019-03-04T04:48:35.325Z,97740.95
2019-03-04T04:51:06.568Z,97732.01
2019-03-04T04:53:40.955Z,97720.14
2019-03-04T04:56:12.147Z,97727.69
2019-03-04T04:58:44.486Z,97724.72
2019-03-04T05:01:15.749Z,97726.28
2019-03-04T05:03:46.908Z,97727.39
2019-03-04T05:06:17.332Z,97733.51
2019-03-04T05:08:48.594Z,97729.02
2019-03-04T05:11:19.725Z,97731.98
2019-03-04T05:13:50.924Z,97734.14
2019-03-04T05:16:23.259Z,97724.15
2019-03-04T05:18:54.435Z,97729.97
2019-03-04T05:21:26.518Z,97733.31
2019-03-04T05:23:57.778Z,97732.84
2019-03-04T05:26:30.517Z,97735.89
2019-03-04T05:29:01.740Z,97731.02
2019-03-04T05:31:33.960Z,97730.41
2019-03-04T05:34:06.792Z,97730.47
2019-03-04T05:36:40.019Z,97732.70
2019-03-04T05:39:13.041Z,97736.77
2019-03-04T05:41:48.649Z,97736.72
2019-03-04T05:44:19.950Z,97733.00
2019-03-04T05:46:51.153Z,97738.92
2019-03-04T05:49:24.362Z,97730.83
2019-03-04T05:52:59.786Z,97721.07
2019-03-04T05:55:33.282Z,97724.48
2019-03-04T05:58:06.580Z,97734.53
2019-03-04T06:00:38.755Z,97716.32
2019-03-04T06:03:21.564Z,97723.32
2019-03-04T06:05:53.024Z,97727.48
2019-03-04T06:08:25.305Z,97724.83
2019-03-04T06:10:58.065Z,97726.56
2019-03-04T06:13:29.243Z,97727.33
2019-03-04T06:16:01.640Z,97714.88
2019-03-04T06:18:32.859Z,97716.81
2019-03-04T06:21:04.139Z,97714.13
2019-03-04T06:23:35.426Z,97715.53
2019-03-04T06:26:07.553Z,97715.53
2019-03-04T06:28:40.465Z,97712.41
2019-03-04T06:31:13.902Z,97710.88
2019-03-04T06:33:45.078Z,97710.51
2019-03-04T06:36:16.302Z,97709.27
2019-03-04T06:38:50.389Z,97712.87
2019-03-04T06:41:22.632Z,97704.96
2019-03-04T06:43:54.341Z,97709.89
2019-03-04T06:46:25.552Z,97706.26
2019-03-04T06:48:56.659Z,97706.66
2019-03-04T06:51:33.668Z,97698.87
2019-03-04T06:54:12.359Z,97709.15
2019-03-04T06:56:49.772Z,97696.95
2019-03-04T06:59:43.834Z,97694.51
2019-03-04T07:02:25.429Z,97700.53
2019-03-04T07:05:05.606Z,97708.81
2019-03-04T07:07:36.889Z,97702.08
2019-03-04T07:10:09.110Z,97708.16
2019-03-04T07:12:40.372Z,97717.03
2019-03-04T07:15:12.537Z,97717.86
2019-03-04T07:17:43.845Z,97720.00
2019-03-04T07:20:17.475Z,97714.48
2019-03-04T07:22:52.791Z,97712.86
2019-03-04T07:25:24.407Z,97723.80
2019-03-04T07:27:56.870Z,97722.92
2019-03-04T07:30:28.023Z,97713.14
2019-03-04T07:32:59.217Z,97717.08
2019-03-04T07:35:31.273Z,97721.37
2019-03-04T07:38:23.876Z,97698.95
2019-03-04T07:40:55.762Z,97710.65
2019-03-04T07:43:26.988Z,97712.18
2019-03-04T07:45:58.232Z,97720.36
2019-03-04T07:48:29.365Z,97722.84
2019-03-04T07:51:12.610Z,97728.85
2019-03-04T07:53:46.646Z,97724.55
2019-03-04T07:56:17.704Z,97716.61
2019-03-04T07:58:49.410Z,97720.87
2019-03-04T08:01:20.636Z,97721.70
2019-03-04T08:06:31.895Z,97713.05
2019-03-04T08:09:27.326Z,97711.16
2019-03-04T08:12:13.681Z,97710.91
2019-03-04T08:14:45.877Z,97711.52
2019-03-04T08:17:17.220Z,97707.47
2019-03-04T08:19:48.951Z,97716.93
2019-03-04T08:22:20.107Z,97712.44
2019-03-04T08:24:52.761Z,97713.31
2019-03-04T08:27:28.703Z,97712.65
2019-03-04T08:30:00.059Z,97711.13
2019-03-04T08:32:31.658Z,97710.11
2019-03-04T08:35:03.179Z,97705.30
2019-03-04T08:37:34.364Z,97707.16
2019-03-04T08:40:08.683Z,97711.20
2019-03-04T08:42:41.460Z,97709.92
2019-03-04T08:45:16.527Z,97714.28
2019-03-04T08:47:47.787Z,97718.30
2019-03-04T08:50:20.579Z,97713.72
2019-03-04T08:52:51.809Z,97706.73
2019-03-04T08:55:23.123Z,97714.29
2019-03-04T08:57:54.519Z,97707.02
2019-03-04T09:00:29.601Z,97708.67
2019-03-04T09:03:00.920Z,97707.03
2019-03-04T09:05:33.684Z,97709.72
2019-03-04T09:08:07.953Z,97711.88
2019-03-04T09:10:39.094Z,97712.98
2019-03-04T09:13:10.401Z,97713.52
2019-03-04T09:15:41.609Z,97716.45
2019-03-04T09:18:12.898Z,97714.05
2019-03-04T09:20:45.224Z,97718.11
2019-03-04T09:23:16.900Z,97716.77
2019-03-04T09:25:53.711Z,97711.34
2019-03-04T09:28:25.008Z,97721.61
2019-03-04T09:30:57.219Z,97710.55
2019-03-04T09:33:28.871Z,97705.95
2019-03-04T09:36:00.174Z,97706.22
2019-03-04T09:38:31.698Z,97705.96
2019-03-04T09:41:02.857Z,97702.73
2019-03-04T09:43:34.200Z,97703.25
2019-03-04T09:46:05.381Z,97705.93
2019-03-04T09:48:37.640Z,97710.00
2019-03-04T09:51:10.304Z,97712.96
2019-03-04T09:53:44.224Z,97719.16
2019-03-04T09:56:15.599Z,97710.79
2019-03-04T09:58:47.224Z,97723.72
2019-03-04T10:01:30.574Z,97711.32
2019-03-04T10:04:16.941Z,97718.05
2019-03-04T10:07:09.255Z,97721.59
2019-03-04T10:09:43.700Z,97710.52
2019-03-04T10:12:45.389Z,97716.16
2019-03-04T10:15:37.770Z,97708.89
2019-03-04T10:18:28.427Z,97705.66
2019-03-04T10:21:38.404Z,97704.06
2019-03-04T10:24:18.035Z,97695.70
2019-03-04T10:27:04.305Z,97699.22
2019-03-04T10:30:01.348Z,97704.04
2019-03-04T10:32:47.854Z,97695.70
2019-03-04T10:35:40.216Z,97695.71
2019-03-04T10:38:22.532Z,97689.24
2019-03-04T10:41:11.582Z,97673.34
2019-03-04T10:44:10.013Z,97674.16
2019-03-04T10:46:54.957Z,97665.24
2019-03-04T10:49:30.206Z,97662.80
2019-03-04T10:52:03.409Z,97662.24
2019-03-04T10:54:44.402Z,97655.73
2019-03-04T10:57:36.914Z,97646.87
2019-03-04T11:00:17.285Z,97647.17
2019-03-04T11:02:50.191Z,97642.52
2019-03-04T11:05:23.100Z,97638.00
2019-03-04T11:07:54.854Z,97645.51
2019-03-04T11:10:26.458Z,97635.56
2019-03-04T11:12:58.174Z,97639.03
2019-03-04T11:15:29.379Z,97644.11
2019-03-04T11:18:03.268Z,97633.31
2019-03-04T11:20:34.877Z,97637.91
2019-03-04T11:23:10.372Z,97633.63
2019-03-04T11:25:45.267Z,97626.70
2019-03-04T11:28:19.582Z,97633.16
2019-03-04T11:30:52.691Z,97632.88
2019-03-04T11:33:24.305Z,97625.08
2019-03-04T11:35:55.642Z,97621.55
2019-03-04T11:38:37.475Z,97609.45
2019-03-04T11:41:10.943Z,97603.78
2019-03-04T11:43:42.202Z,97610.80
2019-03-04T11:46:16.181Z,97604.58
2019-03-04T11:48:47.563Z,97605.14
2019-03-04T11:51:18.856Z,97610.23
2019-03-04T11:53:50.089Z,97595.09
2019-03-04T11:57:46.603Z,97597.20
2019-03-04T12:00:36.263Z,97592.38
2019-03-04T12:03:11.568Z,97596.72
2019-03-04T12:05:45.973Z,97587.25
2019-03-04T12:08:20.145Z,97580.47
2019-03-04T12:10:51.913Z,97585.06
2019-03-04T12:13:23.105Z,97584.84
2019-03-04T12:15:54.406Z,97592.36
2019-03-04T12:18:25.629Z,97584.58
2019-03-04T12:20:57.361Z,97586.77
2019-03-04T12:23:31.251Z,97577.26
2019-03-04T12:26:09.321Z,97573.69
2019-03-04T12:28:41.653Z,97568.91
2019-03-04T12:31:17.975Z,97565.14
2019-03-04T12:33:49.299Z,97566.50
2019-03-04T12:36:20.558Z,97550.26
2019-03-04T12:38:54.876Z,97552.93
2019-03-04T12:41:26.167Z,97547.73
2019-03-04T12:52:33.571Z,97564.13
2019-03-04T12:55:05.459Z,97574.19
2019-03-04T12:57:36.638Z,97570.61
2019-03-04T13:00:14.450Z,97575.80
2019-03-04T13:02:57.157Z,97572.55
2019-03-04T13:05:20.902Z,97574.75
2019-03-04T13:07:52.057Z,97573.90
2019-03-04T13:10:24.005Z,97564.69
2019-03-04T13:12:55.158Z,97561.81
2019-03-04T13:15:31.666Z,97557.56
2019-03-04T13:18:03.392Z,97567.21
2019-03-04T13:20:34.787Z,97561.25
2019-03-04T13:23:06.123Z,97573.63
2019-03-04T13:25:37.324Z,97560.34
2019-03-04T13:28:08.852Z,97558.20
2019-03-04T13:30:41.362Z,97547.93
2019-03-04T13:33:12.529Z,97546.47
2019-03-04T13:35:44.936Z,97549.47
2019-03-04T13:38:16.251Z,97557.23
2019-03-04T13:40:48.477Z,97553.74
2019-03-04T13:43:19.649Z,97564.02
2019-03-04T13:48:24.986Z,97565.11
2019-03-04T13:51:00.040Z,97560.16
2019-03-04T13:53:31.878Z,97563.16
2019-03-04T13:56:03.137Z,97557.76
2019-03-04T13:58:34.870Z,97555.80
2019-03-04T14:01:06.346Z,97545.03
2019-03-04T14:03:38.158Z,97538.77
2019-03-04T14:06:09.396Z,97535.55
2019-03-04T14:08:40.736Z,97534.45
2019-03-04T14:11:12.950Z,97521.77
2019-03-04T14:13:45.202Z,97541.12
2019-03-04T14:16:19.160Z,97541.95
2019-03-04T14:18:50.422Z,97536.59
2019-03-04T14:21:21.689Z,97508.06
2019-03-04T14:23:52.944Z,97533.33
2019-03-04T14:26:24.957Z,97537.67
2019-03-04T14:28:57.765Z,97539.77
2019-03-04T14:31:31.535Z,97539.72
2019-03-04T14:34:05.932Z,97532.75
2019-03-04T14:36:37.546Z,97536.84
2019-03-04T14:39:11.380Z,97543.30
2019-03-04T14:41:42.638Z,97542.47
2019-03-04T14:45:04.912Z,97504.36
2019-03-04T14:47:39.610Z,97542.56
2019-03-04T14:50:12.885Z,97546.08
2019-03-04T14:52:44.134Z,97543.95
2019-03-04T14:55:40.007Z,97538.81
2019-03-04T14:58:12.888Z,97538.33
2019-03-04T15:00:46.186Z,97539.50
2019-03-04T15:03:24.170Z,97539.80
2019-03-04T15:06:06.312Z,97538.75
2019-03-04T15:08:30.509Z,97533.39
2019-03-04T15:11:01.968Z,97538.81
2019-03-04T15:13:33.322Z,97539.11
2019-03-04T15:16:04.640Z,97533.75
2019-03-04T15:18:35.869Z,97537.44
2019-03-04T15:21:07.216Z,97547.47
2019-03-04T15:23:38.422Z,97547.77
2019-03-04T15:26:09.743Z,97552.63
2019-03-04T15:28:42.547Z,97541.05
2019-03-04T15:31:14.040Z,97548.64
2019-03-04T15:33:45.462Z,97548.94
2019-03-04T15:36:16.990Z,97547.33
2019-03-04T15:38:48.271Z,97554.63
2019-03-04T15:41:20.526Z,97557.61
2019-03-04T15:43:51.763Z,97556.02
2019-03-04T15:46:23.063Z,97563.02
2019-03-04T15:48:54.303Z,97560.32
2019-03-04T15:51:26.931Z,97564.11
2019-03-04T15:53:59.383Z,97563.27
2019-03-04T15:56:31.554Z,97569.20
2019-03-04T15:59:03.560Z,97561.41
2019-03-04T16:01:35.023Z,97565.19
2019-03-04T16:04:07.292Z,97557.08
2019-03-04T16:06:41.974Z,97563.53
2019-03-04T16:09:18.734Z,97569.22
2019-03-04T16:11:51.296Z,97554.12
2019-03-04T16:14:24.213Z,97553.87
2019-03-04T16:16:57.371Z,97556.32
2019-03-04T16:19:28.599Z,97548.27
2019-03-04T16:22:01.511Z,97558.23
2019-03-04T16:24:35.046Z,97547.71
2019-03-04T16:27:12.020Z,97548.25
2019-03-04T16:29:45.856Z,97544.52
2019-03-04T16:32:17.079Z,97552.88
2019-03-04T16:34:48.308Z,97537.80
2019-03-04T16:37:19.562Z,97539.92
2019-03-04T16:39:52.380Z,97533.20
2019-03-04T16:42:23.814Z,97533.77
2019-03-04T16:44:55.171Z,97547.79
2019-03-04T16:47:27.149Z,97548.85
2019-03-04T16:50:01.185Z,97551.29
2019-03-04T16:52:35.185Z,97543.20
2019-03-04T16:55:09.298Z,97543.73
2019-03-04T16:57:40.512Z,97540.77
2019-03-04T17:00:17.013Z,97536.47
2019-03-04T17:02:51.164Z,97530.55
2019-03-04T17:05:22.377Z,97535.92
2019-03-04T17:07:54.460Z,97537.27
2019-03-04T17:10:26.343Z,97534.30
2019-03-04T17:12:59.294Z,97535.11
2019-03-04T17:15:33.471Z,97532.70
2019-03-04T17:18:05.896Z,97535.11
2019-03-04T17:20:37.083Z,97528.12
2019-03-04T17:23:08.481Z,97522.44
2019-03-04T17:25:41.524Z,97520.27
2019-03-04T17:28:13.868Z,97517.56
2019-03-04T17:30:45.615Z,97506.55
2019-03-04T17:33:16.944Z,97511.40
2019-03-04T17:35:48.186Z,97515.41
2019-03-04T17:38:21.727Z,97507.88
2019-03-04T17:40:52.978Z,97503.58
2019-03-04T17:43:24.722Z,97496.59
2019-03-04T17:45:55.975Z,97498.77
2019-03-04T17:48:27.248Z,97499.81
2019-03-04T17:50:58.538Z,97497.94
2019-03-04T17:53:30.201Z,97496.59
2019-03-04T17:56:01.525Z,97497.94
2019-03-04T17:58:33.863Z,97494.97
2019-03-04T18:01:05.383Z,97500.64
2019-03-04T18:03:36.513Z,97495.55
2019-03-04T18:06:07.745Z,97501.45
2019-03-04T18:08:39.017Z,97495.00
2019-03-04T18:11:10.225Z,97499.86
2019-03-04T18:13:41.546Z,97496.64
2019-03-04T18:16:12.816Z,97492.34
2019-03-04T18:18:45.706Z,97484.25
2019-03-04T18:21:17.602Z,97487.20
2019-03-04T18:23:49.825Z,97482.36
2019-03-04T18:26:27.132Z,97480.48
2019-03-04T18:29:04.449Z,97476.70
2019-03-04T18:31:50.693Z,97478.61
2019-03-04T18:34:30.862Z,97472.42
2019-03-04T18:37:05.249Z,97470.81
2019-03-04T18:39:45.585Z,97463.28
2019-03-04T18:42:54.974Z,97467.30
2019-03-04T18:45:49.045Z,97470.82
2019-03-04T18:48:42.257Z,97469.19
2019-03-04T18:51:13.713Z,97470.02
2019-03-04T18:53:46.696Z,97469.20
2019-03-04T18:56:22.046Z,97466.25
2019-03-04T18:58:52.304Z,97476.20
2019-03-04T19:01:24.062Z,97468.41
2019-03-04T19:03:55.207Z,97473.51
2019-03-04T19:06:26.499Z,97464.08
2019-03-04T19:08:57.781Z,97461.92
2019-03-04T19:11:29.217Z,97458.97
2019-03-04T19:14:00.551Z,97459.77
2019-03-04T19:16:32.083Z,97455.46
2019-03-04T19:19:03.226Z,97456.55
2019-03-04T19:21:35.733Z,97457.88
2019-03-04T19:24:07.072Z,97451.42
2019-03-04T19:26:38.323Z,97460.02
2019-03-04T19:29:10.876Z,97456.25
2019-03-04T19:31:42.567Z,97454.94
2019-03-04T19:34:17.293Z,97445.51
2019-03-04T19:36:50.345Z,97452.48
2019-03-04T19:39:21.723Z,97442.80
2019-03-04T19:41:52.851Z,97446.56
2019-03-04T19:44:24.085Z,97443.62
2019-03-04T19:46:55.291Z,97442.82
2019-03-04T19:49:26.605Z,97442.56
2019-03-04T19:51:58.021Z,97437.17
2019-03-04T19:54:31.215Z,97428.58
2019-03-04T19:57:04.818Z,97426.15
2019-03-04T19:59:36.067Z,97423.47
2019-03-04T20:02:07.363Z,97425.36
2019-03-04T20:04:38.564Z,97426.69
2019-03-04T20:07:11.356Z,97425.34
2019-03-04T20:09:42.416Z,97418.09
2019-03-04T20:12:12.889Z,97425.34
2019-03-04T20:14:44.104Z,97417.00
2019-03-04T20:17:15.993Z,97414.31
2019-03-04T20:19:47.108Z,97424.00
2019-03-04T20:22:19.145Z,97409.76
2019-03-04T20:24:50.459Z,97419.17
2019-03-04T20:27:21.607Z,97415.95
2019-03-04T20:29:54.362Z,97418.09
2019-03-04T20:32:26.828Z,97406.25
2019-03-04T20:34:58.016Z,97407.06
2019-03-04T20:37:29.234Z,97403.02
2019-03-04T20:40:00.522Z,97414.31
2019-03-04T20:42:36.271Z,97408.94
2019-03-04T20:45:17.824Z,97409.19
2019-03-04T20:47:51.193Z,97400.06
2019-03-04T20:50:25.759Z,97402.48
2019-03-04T20:52:57.017Z,97408.40
2019-03-04T20:55:28.291Z,97400.61
2019-03-04T20:57:59.327Z,97405.72
2019-03-04T21:00:33.605Z,97396.30
2019-03-04T21:03:08.287Z,97400.59
2019-03-04T21:05:43.994Z,97398.16
2019-03-04T21:08:15.536Z,97385.25
2019-03-04T21:10:51.140Z,97381.20
2019-03-04T21:13:34.904Z,97389.04
2019-03-04T21:15:57.011Z,97378.02
2019-03-04T21:18:30.248Z,97380.44
2019-03-04T21:21:03.615Z,97387.95
2019-03-04T21:23:35.768Z,97379.09
2019-03-04T21:26:11.303Z,97376.39
2019-03-04T21:29:15.817Z,97371.83
2019-03-04T21:32:14.622Z,97374.80
2019-03-04T21:34:58.231Z,97370.47
2019-03-04T21:37:32.934Z,97371.55
2019-03-04T21:40:25.878Z,97363.47
2019-03-04T21:43:12.006Z,97363.74
2019-03-04T21:45:50.342Z,97359.19
2019-03-04T21:48:42.576Z,97361.03
2019-03-04T21:51:26.100Z,97363.20
2019-03-04T21:53:58.935Z,97353.78
2019-03-04T21:56:52.232Z,97361.57
2019-03-04T21:59:25.197Z,97374.45
2019-03-04T22:02:17.707Z,97369.89
2019-03-04T22:04:48.945Z,97378.22
2019-03-04T22:07:20.239Z,97367.46
2019-03-04T22:09:51.579Z,97362.09
2019-03-04T22:12:22.781Z,97350.55
2019-03-04T22:14:53.949Z,97348.67
2019-03-04T22:17:25.467Z,97355.10
2019-03-04T22:19:56.733Z,97351.60
2019-03-04T22:22:28.072Z,97357.80
2019-03-04T22:25:01.877Z,97350.03
2019-03-04T22:27:34.234Z,97320.97
2019-03-04T22:30:11.495Z,97346.27
2019-03-04T22:32:42.823Z,97333.09
2019-03-04T22:35:17.209Z,97337.66
2019-03-04T22:37:48.612Z,97342.49
2019-03-04T22:40:27.722Z,97334.16
2019-03-04T22:42:58.902Z,97323.14
2019-03-04T22:45:30.110Z,97322.09
2019-03-04T22:48:01.290Z,97334.17
2019-03-04T22:50:32.709Z,97328.81
2019-03-04T22:53:03.941Z,97333.66
2019-03-04T22:55:38.645Z,97329.88
2019-03-04T22:58:09.910Z,97335.00
2019-03-04T23:00:54.896Z,97325.05
2019-03-04T23:03:28.262Z,97333.09
2019-03-04T23:06:08.135Z,97327.47
2019-03-04T23:08:39.907Z,97318.06
2019-03-04T23:11:11.209Z,97316.16
2019-03-04T23:13:51.723Z,97314.57
2019-03-04T23:16:33.255Z,97318.86
2019-03-04T23:19:04.456Z,97320.22
2019-03-04T23:21:36.242Z,97312.66
2019-03-04T23:24:07.416Z,97310.78
2019-03-04T23:26:38.805Z,97310.23
2019-03-04T23:29:09.957Z,97316.70
2019-03-04T23:31:41.213Z,97319.38
2019-03-04T23:34:12.472Z,97311.59
2019-03-04T23:36:43.800Z,97310.54
2019-03-04T23:39:15.096Z,97312.66
2019-03-04T23:41:46.435Z,97303.00
2019-03-04T23:44:22.642Z,97300.31
2019-03-04T23:46:54.313Z,97301.40
2019-03-04T23:49:29.949Z,97297.64
2019-03-04T23:52:01.887Z,97289.28
2019-03-04T23:54:33.077Z,97293.34
2019-03-04T23:57:04.384Z,97290.63
2019-03-04T23:59:35.607Z,97285.78
